MDT,Max TemperatureF,Mean TemperatureF,Min TemperatureF,Max Dew PointF,MeanDew PointF,Min DewpointF,Max Humidity, Mean Humidity, Min Humidity, Max Sea Level PressureIn, Mean Sea Level PressureIn, Min Sea Level PressureIn, Max VisibilityMiles, Mean VisibilityMiles, Min VisibilityMiles, Max Wind SpeedMPH, Mean Wind SpeedMPH, Max Gust SpeedMPH,PrecipitationIn, CloudCover, Events, WindDirDegrees
2012-10-1,79,66,54,51,43,36,78,50,22,30.05,30.00,29.91,10,10,10,26,12,34,0.00,1,,11
2012-10-2,84,66,48,46,42,37,77,48,19,30.06,29.91,29.75,10,10,10,17,7,24,0.00,0,,244
2012-10-3,93,74,54,49,37,20,77,38,8,29.81,29.75,29.67,10,10,10,13,8,,0.00,0,,242
2012-10-4,70,58,48,39,34,30,66,43,26,30.31,30.11,29.79,10,10,7,33,18,47,0.00,2,,53
2012-10-5,78,60,42,45,39,34,81,56,28,30.17,30.05,29.87,10,10,10,26,9,33,0.00,2,,74
2012-10-6,52,46,39,37,30,27,66,53,41,30.28,30.16,30.09,10,10,10,17,12,21,0.00,7,,90
2012-10-7,54,46,39,28,27,24,63,50,37,30.26,30.18,30.08,10,10,10,13,7,,0.00,5,,163
2012-10-8,82,60,39,42,33,26,70,45,13,30.13,29.95,29.76,10,10,10,20,10,25,0.00,0,,222
2012-10-9,87,68,51,43,31,22,63,33,10,30.07,29.85,29.76,10,10,10,23,13,29,0.00,0,,304
2012-10-10,73,57,41,43,38,34,76,53,30,30.23,30.09,29.97,10,10,10,15,8,17,0.00,0,,147
2012-10-11,82,68,55,54,49,41,69,55,33,30.12,29.96,29.88,10,10,10,23,11,30,0.00,2,Rain,228
2012-10-12,70,58,48,62,51,43,87,77,62,30.24,30.03,29.81,10,9,2,29,9,38,0.19,5,Rain-Thunderstorm,81
2012-10-13,73,62,53,61,41,26,88,50,18,29.99,29.85,29.74,10,10,10,24,15,32,0.00,1,Thunderstorm,251
2012-10-14,75,60,48,40,38,33,68,46,22,30.19,30.10,30.00,10,10,10,14,9,,0.00,0,,244
2012-10-15,82,64,46,39,36,32,71,37,17,30.07,29.91,29.73,10,10,10,25,13,32,0.00,0,,221
2012-10-16,84,68,51,37,27,19,48,23,10,29.75,29.62,29.47,10,10,10,24,12,31,0.00,0,,256
2012-10-17,77,62,50,35,28,22,44,27,16,29.84,29.65,29.47,10,10,10,24,15,30,0.00,0,,102
2012-10-18,72,55,39,30,24,19,63,36,14,30.05,29.96,29.86,10,10,10,12,5,,0.00,0,,88
2012-10-19,81,60,39,27,25,21,58,32,11,30.06,29.90,29.72,10,10,10,14,8,,0.00,0,,253
2012-10-20,86,67,48,22,17,10,33,17,6,29.77,29.67,29.59,10,10,10,13,7,,0.00,0,,241
2012-10-21,86,72,57,34,28,20,32,22,11,29.71,29.64,29.59,10,10,10,34,15,41,0.00,0,,251
2012-10-22,84,72,60,35,30,24,39,24,11,29.77,29.71,29.64,10,10,10,24,11,36,0.00,0,,234
2012-10-23,89,73,57,32,27,19,35,21,8,29.78,29.70,29.64,10,10,10,29,14,36,0.00,0,,240
2012-10-24,84,72,61,36,31,24,31,24,13,29.72,29.63,29.52,10,10,10,23,13,31,0.00,0,,216
2012-10-25,68,54,39,39,28,23,66,45,18,30.24,29.99,29.59,10,10,10,17,14,26,0.00,0,,61
2012-10-26,51,43,32,26,23,18,60,48,32,30.41,30.33,30.25,10,10,10,14,8,17,0.00,4,,80
2012-10-27,64,46,30,21,19,15,61,37,21,30.29,30.14,29.99,10,10,10,25,8,34,0.00,0,,206
2012-10-28,64,50,37,23,18,16,44,30,16,30.19,30.09,29.99,10,10,10,14,10,21,0.00,0,,210
2012-10-29,73,54,35,27,24,21,61,33,14,30.12,30.03,29.94,10,10,10,8,3,,0.00,0,,208
2012-10-30,79,59,41,26,22,20,49,30,12,30.06,29.99,29.93,10,10,10,9,4,,0.00,0,,284
2012-10-31,80,60,39,27,21,15,47,28,10,30.08,30.01,29.93,10,10,10,15,4,20,0.00,0,,278